Time;durP1;ratioP1;P1;durP2;ratioP2;P2;SDS_P1;SDS_P2;PMS_P1;PMS_P2;Temp;Humidity;BMP_temperature;BMP_pressure;BME280_temperature;BME280_humidity;BME280_pressure;Samples;Min_cycle;Max_cycle;Signal;HPM_P1;HPM_P2
2022/04/16 00:00:08;;;;;;;;;;;;;;;16.48;64.95;101900.38;4419568;32;19957;-71
2022/04/16 00:02:33;;;;;;;;;;;;;;;16.41;65.31;101898.50;4416527;32;19977;-70
2022/04/16 00:04:59;;;;;;;;;;;;;;;16.39;65.19;101905.88;4420148;32;19964;-70
2022/04/16 00:07:24;;;;;;;;;;;;;;;16.32;65.12;101906.88;4417210;32;19957;-70
2022/04/16 00:09:50;;;;;;;;;;;;;;;16.30;65.01;101911.44;4422766;32;20030;-70
2022/04/16 00:12:18;;;;;;;;;;;;;;;16.22;65.16;101910.84;4420392;32;20593;-71
2022/04/16 00:14:43;;;;;;;;;;;;;;;16.14;65.53;101908.66;4418087;32;19959;-70
2022/04/16 00:17:09;;;;;;;;;;;;;;;16.04;66.04;101919.06;4421351;32;19953;-70
2022/04/16 00:19:34;;;;;;;;;;;;;;;16.05;66.19;101911.34;4419427;32;19981;-70
2022/04/16 00:22:00;;;;;;;;;;;;;;;15.98;66.47;101906.66;4412386;32;20017;-70
2022/04/16 00:24:28;;;;;;;;;;;;;;;15.91;66.64;101918.19;4422544;32;19953;-70
2022/04/16 00:26:53;;;;;;;;;;;;;;;15.83;66.83;101917.59;4420982;32;20005;-70
2022/04/16 00:29:19;;;;;;;;;;;;;;;15.84;66.92;101921.25;4423917;32;20319;-70
2022/04/16 00:31:45;;;;;;;;;;;;;;;15.78;67.18;101915.28;4421724;32;20291;-70
2022/04/16 00:34:14;;;;;;;;;;;;;;;15.82;66.95;101916.00;4420269;32;20326;-70
2022/04/16 00:36:42;;;;;;;;;;;;;;;15.81;66.77;101916.47;4422508;32;19946;-70
2022/04/16 00:39:08;;;;;;;;;;;;;;;15.72;66.71;101913.44;4423465;32;20245;-70
2022/04/16 00:41:33;;;;;;;;;;;;;;;15.77;66.76;101915.72;4413306;32;20401;-70
2022/04/16 00:43:59;;;;;;;;;;;;;;;15.58;66.87;101914.63;4420951;32;19953;-70
2022/04/16 00:46:24;;;;;;;;;;;;;;;15.58;67.02;101908.94;4422935;32;20009;-70
2022/04/16 00:48:50;;;;;;;;;;;;;;;15.52;67.08;101919.22;4425973;32;20003;-70
2022/04/16 00:51:16;;;;;;;;;;;;;;;15.54;66.97;101921.63;4422546;32;19979;-70
2022/04/16 00:53:42;;;;;;;;;;;;;;;15.43;67.33;101916.22;4428091;32;19991;-70
2022/04/16 00:56:12;;;;;;;;;;;;;;;15.56;66.86;101922.78;4416195;32;20004;-70
2022/04/16 00:58:39;;;;;;;;;;;;;;;15.45;67.23;101918.63;4425614;32;19950;-70
2022/04/16 01:01:04;;;;;;;;;;;;;;;15.38;67.43;101925.28;4421543;32;19993;-70
2022/04/16 01:03:30;;;;;;;;;;;;;;;15.33;67.44;101919.28;4418568;32;19969;-70
2022/04/16 01:05:55;;;;;;;;;;;;;;;15.38;67.36;101921.63;4421299;32;20390;-70
2022/04/16 01:08:22;;;;;;;;;;;;;;;15.28;67.35;101919.84;4423449;32;20415;-70
2022/04/16 01:10:48;;;;;;;;;;;;;;;15.19;67.40;101926.09;4420116;32;20043;-70
2022/04/16 01:13:14;;;;;;;;;;;;;;;15.13;67.86;101924.25;4420190;32;19964;-70
2022/04/16 01:15:41;;;;;;;;;;;;;;;15.15;67.83;101919.72;4421904;32;19989;-70
2022/04/16 01:18:07;;;;;;;;;;;;;;;15.06;68.11;101924.41;4419276;32;20004;-70
2022/04/16 01:20:34;;;;;;;;;;;;;;;15.10;68.04;101925.91;4420320;32;19964;-70
2022/04/16 01:22:59;;;;;;;;;;;;;;;15.09;68.04;101930.00;4418807;32;19957;-70
2022/04/16 01:25:27;;;;;;;;;;;;;;;15.07;68.02;101937.34;4422213;32;19945;-70
2022/04/16 01:27:52;;;;;;;;;;;;;;;15.09;67.90;101924.31;4425695;32;20009;-70
2022/04/16 01:30:21;;;;;;;;;;;;;;;15.09;67.71;101918.66;4420477;32;19954;-70
2022/04/16 01:32:48;;;;;;;;;;;;;;;15.05;67.85;101925.66;4422642;32;19957;-70
2022/04/16 01:35:15;;;;;;;;;;;;;;;15.07;67.48;101932.47;4424107;32;19953;-70
2022/04/16 01:37:41;;;;;;;;;;;;;;;15.01;67.45;101933.44;4417708;32;20353;-70
2022/04/16 01:40:07;;;;;;;;;;;;;;;15.04;67.11;101927.69;4420052;32;19997;-70
2022/04/16 01:42:33;;;;;;;;;;;;;;;14.88;67.40;101921.22;4419128;32;19976;-70
2022/04/16 01:45:00;;;;;;;;;;;;;;;14.79;67.34;101927.44;4423129;32;20287;-70
2022/04/16 01:47:27;;;;;;;;;;;;;;;14.79;66.97;101935.19;4424349;32;19961;-70
2022/04/16 01:49:53;;;;;;;;;;;;;;;14.84;66.43;101926.13;4419607;32;19964;-70
2022/04/16 01:52:18;;;;;;;;;;;;;;;14.68;67.12;101926.09;4419783;32;19957;-70
2022/04/16 01:54:43;;;;;;;;;;;;;;;14.68;67.07;101931.78;4417531;32;19968;-70
2022/04/16 01:57:09;;;;;;;;;;;;;;;14.60;66.79;101930.34;4423404;32;19949;-70
2022/04/16 01:59:34;;;;;;;;;;;;;;;14.59;67.10;101934.38;4416994;32;20329;-70
2022/04/16 02:02:00;;;;;;;;;;;;;;;14.64;67.10;101936.72;4423733;32;20004;-70
2022/04/16 02:04:26;;;;;;;;;;;;;;;14.51;67.49;101950.75;4424731;32;19953;-70
2022/04/16 02:06:52;;;;;;;;;;;;;;;14.61;67.28;101946.09;4421509;32;20000;-70
2022/04/16 02:09:18;;;;;;;;;;;;;;;14.57;67.17;101942.53;4419512;32;19984;-70
2022/04/16 02:11:43;;;;;;;;;;;;;;;14.48;67.74;101956.50;4420202;32;19994;-70
2022/04/16 02:14:09;;;;;;;;;;;;;;;14.56;67.17;101957.94;4424983;32;20347;-70
2022/04/16 02:16:34;;;;;;;;;;;;;;;14.46;66.92;101954.09;4425970;32;20032;-70
2022/04/16 02:19:01;;;;;;;;;;;;;;;14.48;66.86;101948.00;4417712;32;20294;-70
2022/04/16 02:21:26;;;;;;;;;;;;;;;14.47;67.18;101955.69;4420345;32;19945;-70
2022/04/16 02:23:52;;;;;;;;;;;;;;;14.51;66.85;101949.97;4428459;32;19956;-70
2022/04/16 02:26:21;;;;;;;;;;;;;;;14.38;67.31;101946.16;4422005;32;19962;-70
2022/04/16 02:28:49;;;;;;;;;;;;;;;14.42;67.03;101950.53;4421675;32;19997;-70
2022/04/16 02:31:14;;;;;;;;;;;;;;;14.38;67.08;101949.81;4422438;32;19945;-70
2022/04/16 02:33:40;;;;;;;;;;;;;;;14.37;66.96;101956.72;4427373;32;20323;-70
2022/04/16 02:36:07;;;;;;;;;;;;;;;14.30;67.12;101961.72;4427653;32;19993;-70
2022/04/16 02:38:33;;;;;;;;;;;;;;;14.27;67.18;101966.22;4418680;32;20330;-70
2022/04/16 02:40:59;;;;;;;;;;;;;;;14.30;66.88;101965.31;4418535;32;20320;-70
2022/04/16 02:43:25;;;;;;;;;;;;;;;14.19;67.34;101963.91;4418950;32;19972;-70
2022/04/16 02:48:36;;;;;;;;;;;;;;;14.15;67.25;101960.38;4420892;32;19999;-70
2022/04/16 02:51:02;;;;;;;;;;;;;;;14.05;67.68;101950.81;4423365;32;19965;-70
2022/04/16 02:53:29;;;;;;;;;;;;;;;13.89;67.94;101950.72;4418207;32;20300;-70
2022/04/16 02:55:55;;;;;;;;;;;;;;;13.83;68.33;101955.28;4423516;32;19953;-70
2022/04/16 02:58:21;;;;;;;;;;;;;;;13.82;68.31;101956.53;4423891;32;19981;-70
2022/04/16 03:00:47;;;;;;;;;;;;;;;13.96;67.82;101959.91;4425938;32;20008;-70
2022/04/16 03:03:13;;;;;;;;;;;;;;;13.85;67.80;101956.47;4425154;32;19997;-70
2022/04/16 03:05:39;;;;;;;;;;;;;;;13.78;68.15;101961.47;4422578;32;19983;-70
2022/04/16 03:08:06;;;;;;;;;;;;;;;13.68;68.09;101966.06;4415481;32;19946;-70
2022/04/16 03:10:32;;;;;;;;;;;;;;;13.63;68.00;101968.59;4419197;32;19985;-70
2022/04/16 03:12:57;;;;;;;;;;;;;;;13.52;68.60;101959.47;4417964;32;19991;-70
2022/04/16 03:18:09;;;;;;;;;;;;;;;13.51;68.72;101961.53;4419306;32;19976;-70
2022/04/16 03:20:34;;;;;;;;;;;;;;;13.45;68.97;101966.06;4421848;32;20341;-70
2022/04/16 03:23:00;;;;;;;;;;;;;;;13.37;69.18;101972.25;4426334;32;19973;-70
2022/04/16 03:25:27;;;;;;;;;;;;;;;13.38;68.87;101963.31;4414487;32;20361;-70
2022/04/16 03:27:53;;;;;;;;;;;;;;;13.43;68.69;101962.84;4420721;32;19949;-70
2022/04/16 03:30:19;;;;;;;;;;;;;;;13.42;68.59;101968.94;4419325;32;19972;-70
2022/04/16 03:32:46;;;;;;;;;;;;;;;13.37;68.92;101972.25;4418333;32;19957;-70
2022/04/16 03:35:12;;;;;;;;;;;;;;;13.31;68.67;101979.59;4426984;32;19964;-70
2022/04/16 03:37:37;;;;;;;;;;;;;;;13.33;68.76;101983.63;4422316;32;20323;-70
2022/04/16 03:40:04;;;;;;;;;;;;;;;13.32;68.84;101992.53;4417694;32;20005;-70
2022/04/16 03:42:31;;;;;;;;;;;;;;;13.37;68.56;101995.66;4423616;32;19953;-70
2022/04/16 03:44:58;;;;;;;;;;;;;;;13.30;68.53;101990.13;4419821;32;19987;-70
2022/04/16 03:47:23;;;;;;;;;;;;;;;13.32;68.51;101992.53;4421890;32;19971;-70
2022/04/16 03:49:48;;;;;;;;;;;;;;;13.27;68.76;102002.28;4425037;32;19953;-70
2022/04/16 03:52:14;;;;;;;;;;;;;;;13.24;68.95;101996.69;4418365;32;19941;-70
2022/04/16 04:00:11;;;;;;;;;;;;;;;13.28;68.58;102003.88;4415703;32;19957;-70
2022/04/16 04:02:38;;;;;;;;;;;;;;;13.31;68.37;102013.53;4414483;32;20013;-70
2022/04/16 04:05:04;;;;;;;;;;;;;;;13.21;68.86;102008.84;4418414;32;19965;-70
2022/04/16 04:07:30;;;;;;;;;;;;;;;13.24;68.61;102013.66;4421862;32;20431;-70
2022/04/16 04:09:55;;;;;;;;;;;;;;;13.31;68.34;102014.34;4421586;32;19961;-70
2022/04/16 04:12:21;;;;;;;;;;;;;;;13.29;68.11;102013.19;4425242;32;19984;-70
2022/04/16 04:14:46;;;;;;;;;;;;;;;13.38;68.12;102014.22;4415165;32;20040;-70
2022/04/16 04:17:13;;;;;;;;;;;;;;;13.29;68.27;102019.63;4414233;32;19961;-70
2022/04/16 04:19:40;;;;;;;;;;;;;;;13.32;67.97;102021.59;4426998;32;19967;-70
2022/04/16 04:22:06;;;;;;;;;;;;;;;13.24;68.21;102022.94;4422419;32;19945;-70
2022/04/16 04:24:32;;;;;;;;;;;;;;;13.17;68.36;102019.41;4419892;32;19964;-70
2022/04/16 04:26:58;;;;;;;;;;;;;;;13.24;68.19;102019.31;4427257;32;19969;-70
2022/04/16 04:29:24;;;;;;;;;;;;;;;13.19;68.08;102012.09;4426233;32;20001;-70
2022/04/16 04:31:50;;;;;;;;;;;;;;;13.29;67.61;102019.63;4421211;32;19953;-70
2022/04/16 04:34:15;;;;;;;;;;;;;;;13.27;67.67;102024.09;4419780;32;19957;-70
2022/04/16 04:36:41;;;;;;;;;;;;;;;13.24;67.35;102024.94;4427052;32;20009;-70
2022/04/16 04:39:06;;;;;;;;;;;;;;;13.19;67.72;102022.63;4424635;32;19949;-70
2022/04/16 04:41:31;;;;;;;;;;;;;;;13.08;68.27;102011.47;4415202;32;20304;-70
2022/04/16 04:43:59;;;;;;;;;;;;;;;13.12;68.49;102026.34;4420998;32;20005;-70
2022/04/16 04:46:25;;;;;;;;;;;;;;;13.16;68.20;102026.31;4419923;32;19971;-70
2022/04/16 04:48:50;;;;;;;;;;;;;;;13.12;68.23;102026.34;4422910;32;20012;-70
2022/04/16 04:51:16;;;;;;;;;;;;;;;13.16;68.16;102023.47;4418137;32;19997;-70
2022/04/16 04:53:42;;;;;;;;;;;;;;;13.05;68.44;102025.63;4419050;32;19958;-70
2022/04/16 04:56:07;;;;;;;;;;;;;;;12.98;68.69;102020.84;4424159;32;20007;-70
2022/04/16 04:58:33;;;;;;;;;;;;;;;13.06;68.52;102030.88;4422068;32;19964;-70
2022/04/16 05:00:58;;;;;;;;;;;;;;;13.02;68.71;102030.13;4423016;32;20227;-70
2022/04/16 05:03:24;;;;;;;;;;;;;;;13.05;68.47;102034.13;4418002;32;19990;-70
2022/04/16 05:05:50;;;;;;;;;;;;;;;12.96;68.61;102028.97;4419223;32;19964;-70
2022/04/16 05:08:16;;;;;;;;;;;;;;;12.95;68.66;102030.16;4420927;32;19973;-70
2022/04/16 05:10:41;;;;;;;;;;;;;;;12.94;69.06;102041.88;4422715;32;19957;-70
2022/04/16 05:13:07;;;;;;;;;;;;;;;13.20;67.93;102041.97;4418177;32;20098;-70
2022/04/16 05:15:33;;;;;;;;;;;;;;;13.06;68.65;102032.88;4422578;32;19946;-70
2022/04/16 05:17:58;;;;;;;;;;;;;;;12.97;68.98;102030.53;4423769;32;19945;-70
2022/04/16 05:20:23;;;;;;;;;;;;;;;13.01;68.83;102039.81;4420048;32;20003;-70
2022/04/16 05:22:49;;;;;;;;;;;;;;;13.06;68.95;102035.69;4418450;32;19961;-70
2022/04/16 05:25:15;;;;;;;;;;;;;;;12.99;69.01;102032.94;4423655;32;19957;-70
2022/04/16 05:27:40;;;;;;;;;;;;;;;12.97;69.43;102027.72;4420443;32;19981;-70
2022/04/16 05:30:06;;;;;;;;;;;;;;;13.00;69.25;102028.94;4420844;32;19958;-70
2022/04/16 05:32:34;;;;;;;;;;;;;;;13.05;69.08;102028.47;4418978;32;19987;-70
2022/04/16 05:35:00;;;;;;;;;;;;;;;13.08;68.73;102036.91;4419736;32;20385;-70
2022/04/16 05:37:26;;;;;;;;;;;;;;;13.19;68.91;102033.94;4418562;32;19953;-70
2022/04/16 05:39:51;;;;;;;;;;;;;;;13.27;68.45;102030.56;4422407;32;19953;-70
2022/04/16 05:42:18;;;;;;;;;;;;;;;13.41;68.19;102029.56;4424728;32;19984;-70
2022/04/16 05:44:43;;;;;;;;;;;;;;;13.39;67.72;102037.66;4419124;32;19957;-70
2022/04/16 05:47:09;;;;;;;;;;;;;;;13.44;68.23;102035.16;4427780;32;19989;-70
2022/04/16 05:49:34;;;;;;;;;;;;;;;13.55;67.89;102041.44;4429217;32;20439;-70
2022/04/16 05:52:00;;;;;;;;;;;;;;;13.55;67.45;102049.94;4419410;32;19953;-70
2022/04/16 05:54:26;;;;;;;;;;;;;;;13.60;67.47;102054.31;4424068;32;19953;-70
2022/04/16 05:56:51;;;;;;;;;;;;;;;13.73;66.98;102053.28;4420563;32;19988;-70
2022/04/16 05:59:18;;;;;;;;;;;;;;;13.98;65.73;102059.34;4420246;32;19997;-70
2022/04/16 06:01:43;;;;;;;;;;;;;;;13.82;66.53;102064.88;4426111;32;19957;-70
2022/04/16 06:04:10;;;;;;;;;;;;;;;13.88;66.38;102060.31;4422709;32;20638;-70
2022/04/16 06:06:36;;;;;;;;;;;;;;;13.93;66.59;102064.69;4423899;32;19989;-70
2022/04/16 06:09:02;;;;;;;;;;;;;;;14.03;66.34;102066.53;4426978;32;19993;-70
2022/04/16 06:11:28;;;;;;;;;;;;;;;14.14;65.76;102069.97;4422197;32;19986;-70
2022/04/16 06:13:54;;;;;;;;;;;;;;;14.18;64.63;102072.75;4424134;32;20309;-70
2022/04/16 06:16:19;;;;;;;;;;;;;;;14.22;64.82;102076.31;4423046;32;19998;-70
2022/04/16 06:18:45;;;;;;;;;;;;;;;14.23;65.12;102080.75;4416475;32;20023;-70
2022/04/16 06:21:11;;;;;;;;;;;;;;;14.31;65.08;102080.22;4419186;32;19989;-70
2022/04/16 06:23:37;;;;;;;;;;;;;;;14.38;64.46;102091.41;4421291;32;20001;-70
2022/04/16 06:26:03;;;;;;;;;;;;;;;14.41;64.71;102092.56;4429958;32;19964;-70
2022/04/16 06:28:28;;;;;;;;;;;;;;;14.53;64.25;102094.78;4418109;32;20009;-70
2022/04/16 06:30:54;;;;;;;;;;;;;;;14.63;63.84;102094.59;4422360;32;19964;-70
2022/04/16 06:33:19;;;;;;;;;;;;;;;14.68;64.28;102093.28;4426592;32;19953;-70
2022/04/16 06:35:45;;;;;;;;;;;;;;;14.78;63.53;102097.94;4422706;32;19994;-70
2022/04/16 06:38:11;;;;;;;;;;;;;;;14.93;63.43;102090.75;4425768;32;19953;-70
2022/04/16 06:40:36;;;;;;;;;;;;;;;14.96;62.93;102095.53;4416506;32;19992;-70
2022/04/16 06:43:02;;;;;;;;;;;;;;;15.02;62.90;102090.97;4422174;32;20048;-70
2022/04/16 06:45:27;;;;;;;;;;;;;;;14.97;62.84;102091.50;4415230;32;19964;-70
2022/04/16 06:47:53;;;;;;;;;;;;;;;15.01;62.86;102092.22;4417992;32;20346;-70
2022/04/16 06:50:19;;;;;;;;;;;;;;;15.10;62.29;102086.75;4422096;32;20520;-70
2022/04/16 06:52:45;;;;;;;;;;;;;;;15.11;62.35;102089.16;4416041;32;19998;-70
2022/04/16 06:55:10;;;;;;;;;;;;;;;15.13;62.42;102091.56;4413501;32;19995;-70
2022/04/16 06:57:36;;;;;;;;;;;;;;;15.27;62.07;102092.03;4424707;32;19958;-70
2022/04/16 07:00:03;;;;;;;;;;;;;;;15.42;61.69;102092.56;4424859;32;19993;-70
2022/04/16 07:02:29;;;;;;;;;;;;;;;15.52;61.43;102095.16;4423333;32;20004;-70
2022/04/16 07:04:54;;;;;;;;;;;;;;;15.58;60.68;102086.91;4426750;32;19997;-70
2022/04/16 07:07:20;;;;;;;;;;;;;;;15.75;60.61;102097.06;4426135;32;20380;-70
2022/04/16 07:09:45;;;;;;;;;;;;;;;15.76;60.60;102090.94;4424851;32;19949;-70
2022/04/16 07:12:11;;;;;;;;;;;;;;;15.81;59.93;102093.22;4426290;32;19985;-70
2022/04/16 07:14:37;;;;;;;;;;;;;;;15.98;59.88;102093.28;4415675;32;20007;-70
2022/04/16 07:17:03;;;;;;;;;;;;;;;16.36;58.46;102100.78;4417433;32;20272;-70
2022/04/16 07:19:29;;;;;;;;;;;;;;;16.24;58.98;102093.00;4423813;32;19950;-70
2022/04/16 07:21:55;;;;;;;;;;;;;;;16.30;58.60;102093.25;4422351;32;20298;-70
2022/04/16 07:24:21;;;;;;;;;;;;;;;16.38;58.79;102091.81;4424035;32;20418;-70
2022/04/16 07:26:47;;;;;;;;;;;;;;;16.52;58.33;102088.63;4426690;32;20315;-70
2022/04/16 07:29:13;;;;;;;;;;;;;;;16.43;58.57;102091.25;4421532;32;19967;-70
2022/04/16 07:31:39;;;;;;;;;;;;;;;16.74;57.56;102098.97;4423332;32;19968;-70
2022/04/16 07:34:04;;;;;;;;;;;;;;;16.83;57.48;102086.94;4425325;32;19965;-70
2022/04/16 07:36:30;;;;;;;;;;;;;;;17.03;56.97;102091.22;4417645;32;20398;-70
2022/04/16 07:38:55;;;;;;;;;;;;;;;17.15;56.24;102093.28;4421428;32;20023;-70
2022/04/16 07:41:21;;;;;;;;;;;;;;;17.28;56.07;102102.66;4418515;32;20031;-70
2022/04/16 07:43:47;;;;;;;;;;;;;;;17.50;55.85;102103.66;4415728;32;19965;-70
2022/04/16 07:46:15;;;;;;;;;;;;;;;17.85;55.08;102096.00;4421991;32;20013;-70
2022/04/16 07:48:40;;;;;;;;;;;;;;;17.71;54.12;102102.19;4427199;32;19972;-70
2022/04/16 07:51:06;;;;;;;;;;;;;;;17.90;53.83;102098.31;4417911;32;19957;-70
2022/04/16 07:53:32;;;;;;;;;;;;;;;18.03;53.47;102090.53;4416664;32;21019;-70
2022/04/16 07:55:58;;;;;;;;;;;;;;;18.18;53.78;102094.50;4425576;32;19953;-70
2022/04/16 07:58:24;;;;;;;;;;;;;;;18.27;53.97;102090.94;4423784;32;20311;-70
2022/04/16 08:00:49;;;;;;;;;;;;;;;18.44;53.74;102092.44;4415056;32;20400;-70
2022/04/16 08:03:15;;;;;;;;;;;;;;;18.64;52.60;102092.91;4423078;32;19964;-70
2022/04/16 08:05:41;;;;;;;;;;;;;;;18.40;53.50;102092.53;4422165;32;20509;-70
2022/04/16 08:08:09;;;;;;;;;;;;;;;18.39;54.00;102095.84;4427602;32;20001;-70
2022/04/16 08:10:37;;;;;;;;;;;;;;;18.72;52.86;102091.41;4417625;32;20314;-70
2022/04/16 08:13:03;;;;;;;;;;;;;;;18.53;53.59;102095.38;4417634;32;20370;-70
2022/04/16 08:15:29;;;;;;;;;;;;;;;18.16;54.38;102096.22;4423024;32;20386;-70
2022/04/16 08:17:55;;;;;;;;;;;;;;;18.21;54.29;102092.78;4419813;32;19976;-71
2022/04/16 08:20:21;;;;;;;;;;;;;;;18.24;54.12;102089.00;4422756;32;20011;-70
2022/04/16 08:22:46;;;;;;;;;;;;;;;18.18;54.47;102099.41;4419536;32;19970;-70
2022/04/16 08:27:56;;;;;;;;;;;;;;;19.01;52.51;102103.38;3955460;32;15780269;-70
2022/04/16 08:30:22;;;;;;;;;;;;;;;19.01;52.51;102103.38;4432834;32;19961;-69
2022/04/16 08:32:48;;;;;;;;;;;;;;;18.67;53.20;102107.06;4418437;32;20181;-71
2022/04/16 08:35:15;;;;;;;;;;;;;;;18.88;52.47;102108.34;4440041;32;20383;-69
2022/04/16 08:37:41;;;;;;;;;;;;;;;19.24;51.60;102112.25;4434754;32;19957;-71
2022/04/16 08:40:07;;;;;;;;;;;;;;;19.18;51.73;102110.47;4428445;32;19945;-72
2022/04/16 08:42:37;;;;;;;;;;;;;;;19.72;50.39;102111.63;4429664;32;20327;-70
2022/04/16 08:45:04;;;;;;;;;;;;;;;20.01;50.19;102114.13;4429390;32;19961;-71
2022/04/16 08:47:29;;;;;;;;;;;;;;;20.30;49.32;102108.81;4431811;32;19950;-71
2022/04/16 08:49:55;;;;;;;;;;;;;;;20.18;49.17;102109.75;4433187;32;19949;-71
2022/04/16 08:52:22;;;;;;;;;;;;;;;20.23;49.72;102111.19;4424987;32;20032;-71
2022/04/16 08:54:48;;;;;;;;;;;;;;;20.64;48.42;102110.63;4431225;32;20001;-71
2022/04/16 08:57:13;;;;;;;;;;;;;;;20.77;48.11;102111.28;4427928;32;20343;-71
2022/04/16 08:59:47;;;;;;;;;;;;;;;21.00;47.79;102116.38;4429454;32;20124;-71
2022/04/16 09:02:13;;;;;;;;;;;;;;;21.32;46.97;102115.69;4427739;32;19993;-70
2022/04/16 09:04:39;;;;;;;;;;;;;;;21.80;45.82;102108.91;4425402;32;19954;-70
2022/04/16 09:07:05;;;;;;;;;;;;;;;22.19;45.13;102118.44;4433420;32;20032;-70
2022/04/16 09:09:30;;;;;;;;;;;;;;;22.35;44.28;102118.81;4430367;32;20371;-70
2022/04/16 09:11:56;;;;;;;;;;;;;;;22.40;44.56;102114.50;4426647;32;19950;-70
2022/04/16 09:14:37;;;;;;;;;;;;;;;22.67;43.64;102109.38;4429158;32;20017;-70
2022/04/16 09:17:13;;;;;;;;;;;;;;;22.91;43.31;102104.41;4434125;32;19961;-70
2022/04/16 09:19:39;;;;;;;;;;;;;;;22.90;43.39;102111.44;4429719;32;20354;-70
2022/04/16 09:22:07;;;;;;;;;;;;;;;22.65;43.52;102109.09;4428271;32;19954;-70
2022/04/16 09:24:48;;;;;;;;;;;;;;;22.74;43.77;102105.34;4431123;32;20008;-71
2022/04/16 09:27:15;;;;;;;;;;;;;;;23.00;43.41;102094.91;4431696;32;19964;-70
2022/04/16 09:29:40;;;;;;;;;;;;;;;23.13;43.12;102096.22;4433258;32;19989;-70
2022/04/16 09:32:06;;;;;;;;;;;;;;;22.79;43.82;102098.91;4429188;32;19957;-70
2022/04/16 09:34:32;;;;;;;;;;;;;;;22.51;44.59;102098.34;4436547;32;19988;-70
2022/04/16 09:36:58;;;;;;;;;;;;;;;22.30;44.43;102101.50;4416178;32;19949;-70
2022/04/16 09:39:25;;;;;;;;;;;;;;;22.28;44.93;102104.03;4420880;32;20403;-70
2022/04/16 09:41:51;;;;;;;;;;;;;;;22.56;44.49;102096.88;4422076;32;20034;-70
2022/04/16 09:46:56;;;;;;;;;;;;;;;22.63;44.48;102090.75;3958046;32;15726366;-71
2022/04/16 09:49:22;;;;;;;;;;;;;;;22.87;44.10;102082.91;4440777;32;19969;-71
2022/04/16 09:52:06;;;;;;;;;;;;;;;23.22;43.22;102099.00;4434078;32;20588;-71
2022/04/16 09:54:52;;;;;;;;;;;;;;;23.60;42.38;102086.63;4429125;32;20003;-71
2022/04/16 09:57:19;;;;;;;;;;;;;;;23.74;42.32;102100.19;4421414;32;19989;-71
2022/04/16 09:59:49;;;;;;;;;;;;;;;23.58;41.33;102089.22;4435719;32;19949;-71
2022/04/16 10:02:15;;;;;;;;;;;;;;;23.56;41.29;102094.66;4419840;32;19968;-71
2022/04/16 10:04:41;;;;;;;;;;;;;;;23.60;41.74;102089.50;4435034;32;19953;-71
2022/04/16 10:07:07;;;;;;;;;;;;;;;23.27;42.38;102086.03;4417474;32;20473;-71
2022/04/16 10:09:35;;;;;;;;;;;;;;;23.33;42.25;102081.19;4434912;32;19957;-71
2022/04/16 10:14:54;;;;;;;;;;;;;;;23.98;40.15;102088.56;4432290;32;19981;-71
2022/04/16 10:17:23;;;;;;;;;;;;;;;23.90;39.88;102087.37;4432632;32;19954;-71
2022/04/16 10:19:49;;;;;;;;;;;;;;;23.96;39.93;102082.53;4435879;32;19975;-72
2022/04/16 10:22:29;;;;;;;;;;;;;;;24.40;39.41;102086.84;4435913;32;19957;-72
2022/04/16 10:24:58;;;;;;;;;;;;;;;24.25;39.03;102079.56;4422763;32;19969;-72
2022/04/16 10:27:28;;;;;;;;;;;;;;;23.99;39.85;102087.28;4439389;32;19949;-71
2022/04/16 10:29:58;;;;;;;;;;;;;;;23.99;39.85;102087.28;4436336;32;20437;-71
2022/04/16 10:32:27;;;;;;;;;;;;;;;24.57;39.05;102090.72;4437322;32;20322;-71
2022/04/16 10:35:01;;;;;;;;;;;;;;;25.01;37.79;102091.28;4437486;32;19978;-71
2022/04/16 10:37:26;;;;;;;;;;;;;;;25.51;36.82;102091.81;4430034;32;19949;-71
2022/04/16 10:39:53;;;;;;;;;;;;;;;25.80;36.25;102088.66;4431542;32;19972;-71
2022/04/16 10:42:28;;;;;;;;;;;;;;;25.81;36.41;102089.44;4432623;32;19949;-71
2022/04/16 10:44:54;;;;;;;;;;;;;;;25.32;37.27;102088.50;4429163;32;20072;-71
2022/04/16 10:47:20;;;;;;;;;;;;;;;25.31;37.35;102078.28;4434030;32;20016;-71
2022/04/16 10:49:46;;;;;;;;;;;;;;;25.40;37.34;102079.41;4415463;32;20025;-71
2022/04/16 10:52:28;;;;;;;;;;;;;;;25.25;37.59;102074.50;4434755;32;19957;-71
2022/04/16 10:55:05;;;;;;;;;;;;;;;25.09;38.22;102083.78;4435185;32;19972;-71
2022/04/16 10:57:30;;;;;;;;;;;;;;;25.23;38.19;102077.13;4423560;32;20353;-71
2022/04/16 10:59:57;;;;;;;;;;;;;;;25.38;37.49;102080.69;4420543;32;20001;-71
2022/04/16 11:05:00;;;;;;;;;;;;;;;26.84;35.32;102079.03;3957059;32;15723607;-71
2022/04/16 11:07:27;;;;;;;;;;;;;;;26.84;35.32;102079.03;4436559;32;19987;-71
2022/04/16 11:09:54;;;;;;;;;;;;;;;26.35;35.46;102068.84;4430621;32;19964;-71
2022/04/16 11:12:20;;;;;;;;;;;;;;;26.37;35.08;102074.09;4426007;32;20438;-71
2022/04/16 11:14:49;;;;;;;;;;;;;;;26.74;34.22;102066.16;4427157;32;19964;-71
2022/04/16 11:17:15;;;;;;;;;;;;;;;26.43;34.34;102069.94;4430274;32;19989;-71
2022/04/16 11:19:40;;;;;;;;;;;;;;;26.82;33.99;102073.78;4426604;32;20358;-71
2022/04/16 11:22:06;;;;;;;;;;;;;;;26.81;33.71;102063.56;4412658;32;19964;-72
2022/04/16 11:24:31;;;;;;;;;;;;;;;27.27;33.45;102071.81;4424295;32;20006;-72
2022/04/16 11:35:24;;;;;;;;;;;;;;;28.63;30.87;102065.62;4413678;32;19980;-72
2022/04/16 11:37:53;;;;;;;;;;;;;;;28.63;31.01;102056.94;4428856;32;19957;-72
2022/04/16 11:40:20;;;;;;;;;;;;;;;28.59;31.10;102060.09;4436893;32;19949;-72
2022/04/16 11:42:45;;;;;;;;;;;;;;;28.36;31.37;102055.69;4429866;32;20338;-72
2022/04/16 11:45:11;;;;;;;;;;;;;;;28.22;31.64;102062.56;4426132;32;19953;-72
2022/04/16 11:47:36;;;;;;;;;;;;;;;28.32;31.68;102046.47;4431627;32;19964;-71
2022/04/16 11:50:05;;;;;;;;;;;;;;;28.06;31.62;102054.72;4434949;32;19974;-71
2022/04/16 11:52:32;;;;;;;;;;;;;;;28.04;31.94;102060.25;4432788;32;19957;-71
2022/04/16 11:55:17;;;;;;;;;;;;;;;27.67;31.82;102059.75;4423679;32;20303;-71
2022/04/16 11:57:45;;;;;;;;;;;;;;;28.18;31.68;102055.47;4426787;32;20431;-71
2022/04/16 12:00:11;;;;;;;;;;;;;;;28.01;31.85;102049.72;4421038;32;20407;-71
2022/04/16 12:02:38;;;;;;;;;;;;;;;28.05;31.94;102056.06;4438615;32;19964;-71
2022/04/16 12:05:23;;;;;;;;;;;;;;;28.28;31.85;102056.75;4430197;32;19958;-71
2022/04/16 12:07:50;;;;;;;;;;;;;;;27.59;32.21;102047.13;4425406;32;20306;-71
2022/04/16 12:10:16;;;;;;;;;;;;;;;27.93;32.05;102047.91;4425714;32;19964;-71
2022/04/16 12:12:48;;;;;;;;;;;;;;;28.25;31.28;102047.03;4426219;32;19979;-71
2022/04/16 12:18:07;;;;;;;;;;;;;;;29.23;29.97;102055.78;3974793;31;15717868;-72
2022/04/16 12:20:33;;;;;;;;;;;;;;;29.23;29.97;102055.78;4446000;32;19969;-72
2022/04/16 12:23:00;;;;;;;;;;;;;;;28.85;30.16;102060.50;4447165;32;20271;-72
2022/04/16 12:25:26;;;;;;;;;;;;;;;28.95;29.92;102063.84;4443660;32;19953;-71
2022/04/16 12:27:52;;;;;;;;;;;;;;;29.06;29.84;102057.25;4446819;32;20460;-72
2022/04/16 12:30:19;;;;;;;;;;;;;;;29.06;29.89;102045.62;4441298;32;19949;-72
2022/04/16 12:35:36;;;;;;;;;;;;;;;28.99;29.77;102047.75;3960871;32;15730403;-72
2022/04/16 12:38:02;;;;;;;;;;;;;;;28.99;29.77;102047.75;4436393;32;19950;-72
2022/04/16 12:40:28;;;;;;;;;;;;;;;28.62;29.94;102035.84;4431368;32;19961;-72
2022/04/16 12:42:54;;;;;;;;;;;;;;;28.34;30.48;102037.25;4434749;32;20343;-72
2022/04/16 12:45:22;;;;;;;;;;;;;;;28.19;30.60;102034.69;4438685;32;20024;-72
2022/04/16 12:47:47;;;;;;;;;;;;;;;28.76;30.04;102028.94;4432669;32;19954;-72
2022/04/16 12:50:14;;;;;;;;;;;;;;;28.63;29.87;102031.62;4435256;32;19964;-72
2022/04/16 12:52:40;;;;;;;;;;;;;;;28.58;30.21;102040.34;4436234;32;20389;-72
2022/04/16 12:55:06;;;;;;;;;;;;;;;29.16;29.45;102044.78;4431451;32;19999;-71
2022/04/16 12:57:32;;;;;;;;;;;;;;;29.30;29.15;102037.03;4427774;32;20076;-72
2022/04/16 12:59:58;;;;;;;;;;;;;;;28.92;28.79;102025.16;4427504;32;20421;-72
2022/04/16 13:02:24;;;;;;;;;;;;;;;28.56;29.86;102037.22;4433306;32;19997;-72
2022/04/16 13:04:50;;;;;;;;;;;;;;;28.28;30.38;102048.88;4432581;32;20006;-72
2022/04/16 13:07:15;;;;;;;;;;;;;;;28.69;29.92;102029.50;4434917;32;19957;-72